Time;durP1;ratioP1;P1;durP2;ratioP2;P2;SDS_P1;SDS_P2;PMS_P1;PMS_P2;Temp;Humidity;BMP_temperature;BMP_pressure;BME280_temperature;BME280_humidity;BME280_pressure;Samples;Min_cycle;Max_cycle;Signal;HPM_P1;HPM_P2
2021/01/07 00:00:32;;;;;;;11.27;7.13;;;-1.40;99.90;;;;;;2064879;28;20804;-67
2021/01/07 00:01:33;;;;;;;10.00;6.70;;;-1.40;99.90;;;;;;2064416;28;20280;-67
2021/01/07 00:02:34;;;;;;;12.33;7.30;;;-1.50;99.90;;;;;;2064825;28;20181;-67
2021/01/07 00:03:38;;;;;;;12.23;7.20;;;-1.40;99.90;;;;;;2064731;28;20182;-67
2021/01/07 00:04:39;;;;;;;9.57;6.07;;;-1.40;99.90;;;;;;2064741;28;20230;-67
2021/01/07 00:05:40;;;;;;;10.00;6.20;;;-1.40;99.90;;;;;;2064622;28;20588;-66
2021/01/07 00:06:41;;;;;;;7.05;5.00;;;-1.40;99.90;;;;;;2064825;28;20197;-66
2021/01/07 00:07:42;;;;;;;7.53;5.03;;;-1.40;99.90;;;;;;2064692;28;20189;-66
2021/01/07 00:08:43;;;;;;;12.30;8.17;;;-1.50;99.90;;;;;;2064830;28;20456;-67
2021/01/07 00:09:44;;;;;;;12.20;7.82;;;-1.50;99.90;;;;;;2064753;28;20189;-66
2021/01/07 00:11:51;;;;;;;9.02;6.50;;;-1.40;99.90;;;;;;2104572;23;20583;-59
2021/01/07 00:12:52;;;;;;;10.50;6.65;;;-1.40;99.90;;;;;;2080891;28;20255;-63
2021/01/07 00:13:53;;;;;;;9.82;6.70;;;-1.40;99.90;;;;;;2080703;28;20211;-59
2021/01/07 00:14:54;;;;;;;10.30;6.50;;;-1.50;99.90;;;;;;2080952;28;20177;-60
2021/01/07 00:15:55;;;;;;;9.83;6.53;;;-1.50;99.90;;;;;;2080642;28;20242;-59
2021/01/07 00:16:55;;;;;;;10.23;6.17;;;-1.40;99.90;;;;;;2080658;28;20191;-59
2021/01/07 00:17:56;;;;;;;10.43;6.90;;;-1.40;99.90;;;;;;2080821;28;20288;-58
2021/01/07 00:18:56;;;;;;;10.37;6.70;;;-1.40;99.90;;;;;;2080826;28;20198;-59
2021/01/07 00:19:57;;;;;;;10.17;7.10;;;-1.40;99.90;;;;;;2080930;28;20826;-60
2021/01/07 00:20:58;;;;;;;10.90;6.93;;;-1.40;99.90;;;;;;2080713;28;20216;-57
2021/01/07 00:21:59;;;;;;;11.48;6.57;;;-1.50;99.90;;;;;;2080650;28;20185;-58
2021/01/07 00:23:00;;;;;;;10.73;7.10;;;-1.50;99.90;;;;;;2080852;28;20651;-60
2021/01/07 00:24:00;;;;;;;10.93;6.70;;;-1.50;99.90;;;;;;2080854;28;20176;-59
2021/01/07 00:25:04;;;;;;;9.10;5.97;;;-1.40;99.90;;;;;;2080877;28;20176;-60
2021/01/07 00:26:05;;;;;;;10.35;6.75;;;-1.40;99.90;;;;;;2080749;28;20188;-57
2021/01/07 00:27:05;;;;;;;10.00;6.80;;;-1.30;99.90;;;;;;2080770;28;20254;-59
2021/01/07 00:28:06;;;;;;;9.20;6.60;;;-1.40;99.90;;;;;;2080736;28;20668;-60
2021/01/07 00:29:07;;;;;;;9.13;6.30;;;-1.50;99.90;;;;;;2080942;28;20195;-58
2021/01/07 00:30:08;;;;;;;11.73;6.10;;;-1.50;99.90;;;;;;2080892;28;20180;-59
2021/01/07 00:31:09;;;;;;;10.55;6.55;;;-1.50;99.90;;;;;;2080578;28;20218;-59
2021/01/07 00:32:10;;;;;;;8.20;5.40;;;-1.50;99.90;;;;;;2080808;28;20554;-58
2021/01/07 00:33:12;;;;;;;7.97;5.20;;;-1.40;99.90;;;;;;2080885;28;20187;-60
2021/01/07 00:34:13;;;;;;;8.05;6.03;;;-1.50;99.90;;;;;;2080657;28;20662;-58
2021/01/07 00:35:14;;;;;;;12.55;6.90;;;-1.60;99.90;;;;;;2080847;28;20267;-60
2021/01/07 00:36:19;;;;;;;7.97;5.60;;;-1.60;99.90;;;;;;2080740;28;20181;-59
2021/01/07 00:37:19;;;;;;;8.23;5.55;;;-1.60;99.90;;;;;;2080753;28;20212;-60
2021/01/07 00:38:20;;;;;;;9.27;5.87;;;-1.60;99.90;;;;;;2080576;28;20184;-60
2021/01/07 00:39:21;;;;;;;7.20;5.17;;;-1.60;99.90;;;;;;2080791;28;20574;-60
2021/01/07 00:40:22;;;;;;;9.15;6.50;;;-1.60;99.90;;;;;;2080590;28;20180;-61
2021/01/07 00:41:23;;;;;;;13.80;5.87;;;-1.60;99.90;;;;;;2080506;28;20209;-59
2021/01/07 00:42:23;;;;;;;10.33;6.03;;;-1.60;99.90;;;;;;2080721;28;20200;-60
2021/01/07 00:43:24;;;;;;;9.77;6.17;;;-1.60;99.90;;;;;;2080817;28;20702;-57
2021/01/07 00:44:26;;;;;;;11.00;6.30;;;-1.60;99.90;;;;;;2080623;28;20198;-60
2021/01/07 00:45:27;;;;;;;9.88;5.97;;;-1.60;99.90;;;;;;2080858;28;20188;-59
2021/01/07 00:46:28;;;;;;;10.35;6.30;;;-1.60;99.90;;;;;;2080716;28;20528;-59
2021/01/07 00:47:29;;;;;;;10.53;6.67;;;-1.60;99.90;;;;;;2080735;28;20186;-59
2021/01/07 00:48:29;;;;;;;14.13;7.03;;;-1.60;99.90;;;;;;2080637;28;20687;-59
2021/01/07 00:49:30;;;;;;;12.03;6.50;;;-1.60;99.90;;;;;;2080711;28;20226;-57
2021/01/07 00:50:31;;;;;;;10.60;6.67;;;-1.60;99.90;;;;;;2080702;28;20556;-59
2021/01/07 00:51:32;;;;;;;9.87;6.60;;;-1.60;99.90;;;;;;2080446;28;20207;-59
2021/01/07 00:52:33;;;;;;;13.65;7.28;;;-1.60;99.90;;;;;;2080636;28;20283;-60
2021/01/07 00:53:35;;;;;;;10.57;6.50;;;-1.60;99.90;;;;;;2080690;28;20185;-58
2021/01/07 00:54:35;;;;;;;10.55;6.93;;;-1.60;99.90;;;;;;2080606;28;20185;-58
2021/01/07 00:55:36;;;;;;;10.77;6.40;;;-1.60;99.90;;;;;;2080606;28;20221;-58
2021/01/07 00:56:37;;;;;;;9.47;6.03;;;-1.60;99.90;;;;;;2080786;28;20239;-60
2021/01/07 00:57:38;;;;;;;8.88;5.68;;;-1.60;99.90;;;;;;2080697;28;20210;-56
2021/01/07 00:58:39;;;;;;;7.50;5.07;;;-1.50;99.90;;;;;;2081543;28;20183;-58
2021/01/07 00:59:40;;;;;;;10.00;6.10;;;-1.60;99.90;;;;;;2082163;28;20179;-58
2021/01/07 01:00:41;;;;;;;7.80;5.73;;;-1.50;99.90;;;;;;2082259;28;20181;-58
2021/01/07 01:01:46;;;;;;;9.13;5.50;;;-1.50;99.90;;;;;;2082181;28;20200;-59
2021/01/07 01:02:47;;;;;;;8.93;5.78;;;-1.50;99.90;;;;;;2082501;28;20192;-59
2021/01/07 01:03:48;;;;;;;9.50;5.80;;;-1.50;99.90;;;;;;2082353;28;20549;-59
2021/01/07 01:04:48;;;;;;;8.13;5.13;;;-1.50;99.90;;;;;;2082496;28;20195;-58
2021/01/07 01:05:49;;;;;;;10.60;6.50;;;-1.50;99.90;;;;;;2082213;28;20270;-59
2021/01/07 01:06:50;;;;;;;10.70;5.72;;;-1.40;99.90;;;;;;2082209;28;20177;-57
2021/01/07 01:07:51;;;;;;;10.10;5.95;;;-1.40;99.90;;;;;;2082258;28;20188;-58
2021/01/07 01:08:52;;;;;;;7.80;5.30;;;-1.40;99.90;;;;;;2082346;28;20273;-58
2021/01/07 01:09:55;;;;;;;7.93;5.47;;;-1.40;99.90;;;;;;2082241;28;20181;-58
2021/01/07 01:10:56;;;;;;;9.10;5.78;;;-1.50;99.90;;;;;;2081959;28;20685;-57
2021/01/07 01:11:57;;;;;;;9.33;6.37;;;-1.50;99.90;;;;;;2082166;28;20309;-58
2021/01/07 01:12:57;;;;;;;9.53;6.30;;;-1.50;99.90;;;;;;2082277;28;20665;-59
2021/01/07 01:13:58;;;;;;;9.27;5.93;;;-1.50;99.90;;;;;;2073635;28;20267;-57
2021/01/07 01:14:59;;;;;;;9.30;6.07;;;-1.60;99.90;;;;;;2066024;28;20899;-57
2021/01/07 01:16:00;;;;;;;7.68;5.70;;;-1.50;99.90;;;;;;2065900;28;20657;-59
2021/01/07 01:17:00;;;;;;;8.20;6.07;;;-1.50;99.90;;;;;;2065827;28;20189;-57
2021/01/07 01:18:01;;;;;;;11.70;6.90;;;-1.50;99.90;;;;;;2065707;28;20180;-57
2021/01/07 01:19:04;;;;;;;10.67;6.33;;;-1.60;99.90;;;;;;2065880;28;20185;-58
2021/01/07 01:20:08;;;;;;;9.85;5.78;;;-1.50;99.90;;;;;;2065804;28;20211;-55
2021/01/07 01:21:09;;;;;;;10.20;6.20;;;-1.50;99.90;;;;;;2065722;28;20209;-58
2021/01/07 01:22:10;;;;;;;8.30;5.90;;;-1.50;99.90;;;;;;2065780;28;20637;-60
2021/01/07 01:23:11;;;;;;;9.85;6.50;;;-1.50;99.90;;;;;;2065743;28;20236;-59
2021/01/07 01:24:12;;;;;;;8.73;6.10;;;-1.40;99.90;;;;;;2065756;28;20276;-58
2021/01/07 01:25:14;;;;;;;11.10;7.43;;;-1.50;99.90;;;;;;2065794;28;20428;-59
2021/01/07 01:26:18;;;;;;;9.25;6.50;;;-1.50;99.90;;;;;;2065739;28;20181;-58
2021/01/07 01:27:18;;;;;;;10.27;6.50;;;-1.50;99.90;;;;;;2065813;28;20288;-58
2021/01/07 01:28:19;;;;;;;10.23;6.40;;;-1.40;99.90;;;;;;2065595;28;20181;-57
2021/01/07 01:29:20;;;;;;;10.30;7.07;;;-1.50;99.90;;;;;;2065807;28;20196;-59
2021/01/07 01:30:21;;;;;;;9.23;6.15;;;-1.50;99.90;;;;;;2065725;28;20247;-55
2021/01/07 01:31:22;;;;;;;8.10;5.50;;;-1.50;99.90;;;;;;2065429;28;20206;-60
2021/01/07 01:32:23;;;;;;;9.17;6.13;;;-1.50;99.90;;;;;;2065726;28;20182;-56
2021/01/07 01:33:23;;;;;;;8.13;5.90;;;-1.50;99.90;;;;;;2065858;28;20181;-57
2021/01/07 01:34:25;;;;;;;10.43;6.50;;;-1.40;99.90;;;;;;2065516;28;20580;-59
2021/01/07 01:35:25;;;;;;;9.38;6.10;;;-1.40;99.90;;;;;;2065868;28;20240;-59
2021/01/07 01:36:27;;;;;;;10.27;5.90;;;-1.40;99.90;;;;;;2065557;28;20664;-58
2021/01/07 01:37:28;;;;;;;9.45;6.10;;;-1.50;99.90;;;;;;2065694;28;20209;-59
2021/01/07 01:38:28;;;;;;;8.67;6.10;;;-1.50;99.90;;;;;;2065632;28;20180;-56
2021/01/07 01:39:29;;;;;;;10.00;6.53;;;-1.40;99.90;;;;;;2065642;28;20204;-58
2021/01/07 01:40:30;;;;;;;9.20;6.47;;;-1.40;99.90;;;;;;2065648;28;20566;-59
2021/01/07 01:41:30;;;;;;;8.97;6.27;;;-1.40;99.90;;;;;;2065474;28;20198;-59
2021/01/07 01:42:31;;;;;;;8.27;5.87;;;-1.60;99.90;;;;;;2065656;28;20654;-58
2021/01/07 01:43:34;;;;;;;8.53;6.00;;;-1.50;99.90;;;;;;2065655;28;20182;-59
2021/01/07 01:44:35;;;;;;;9.90;6.03;;;-1.50;99.90;;;;;;2065510;28;20182;-60
2021/01/07 01:45:35;;;;;;;10.00;6.47;;;-1.50;99.90;;;;;;2065600;28;20193;-59
2021/01/07 01:46:37;;;;;;;8.67;5.73;;;-1.50;99.90;;;;;;2065665;28;20220;-58
2021/01/07 01:47:37;;;;;;;9.15;6.25;;;-1.50;99.90;;;;;;2065539;28;20683;-58
2021/01/07 01:48:40;;;;;;;7.83;5.60;;;-1.50;99.90;;;;;;2065746;28;20197;-59
2021/01/07 01:49:41;;;;;;;11.18;6.40;;;-1.60;99.90;;;;;;2065551;28;20189;-58
2021/01/07 01:50:42;;;;;;;8.63;5.53;;;-1.60;99.90;;;;;;2065544;28;20621;-58
2021/01/07 01:51:43;;;;;;;8.77;6.07;;;-1.60;99.90;;;;;;2064583;28;20652;-59
2021/01/07 01:52:43;;;;;;;10.30;6.67;;;-1.60;99.90;;;;;;2065076;28;20275;-59
2021/01/07 01:53:46;;;;;;;11.07;6.50;;;-1.50;99.90;;;;;;2065551;28;20189;-57
2021/01/07 01:54:47;;;;;;;5.72;4.38;;;-1.50;99.90;;;;;;2065668;28;20181;-59
2021/01/07 01:55:52;;;;;;;6.78;4.55;;;-1.50;99.90;;;;;;2065405;28;20679;-59
2021/01/07 01:56:57;;;;;;;6.97;5.05;;;-1.50;99.90;;;;;;2065644;28;20221;-58
2021/01/07 01:58:00;;;;;;;7.20;5.40;;;-1.50;99.90;;;;;;2064861;28;20197;-58
2021/01/07 01:59:02;;;;;;;7.57;5.35;;;-1.50;99.90;;;;;;2065029;28;20578;-58
2021/01/07 02:00:06;;;;;;;7.65;5.82;;;-1.50;99.90;;;;;;2065471;28;20194;-55
2021/01/07 02:01:07;;;;;;;9.65;5.75;;;-1.50;99.90;;;;;;2065169;28;20269;-60
2021/01/07 02:02:15;;;;;;;8.50;5.63;;;-1.50;99.90;;;;;;2065366;28;20189;-59
2021/01/07 02:03:15;;;;;;;7.07;4.80;;;-1.50;99.90;;;;;;2065558;28;20201;-58
2021/01/07 02:04:16;;;;;;;6.20;4.80;;;-1.50;99.90;;;;;;2065378;28;20178;-59
2021/01/07 02:05:17;;;;;;;8.13;5.03;;;-1.50;99.90;;;;;;2065525;28;20181;-58
2021/01/07 02:06:21;;;;;;;8.00;5.00;;;-1.50;99.90;;;;;;2065484;28;20189;-59
2021/01/07 02:07:25;;;;;;;9.35;5.68;;;-1.50;99.90;;;;;;2064782;28;20208;-57
2021/01/07 02:08:27;;;;;;;7.65;5.35;;;-1.50;99.90;;;;;;2057179;28;20182;-58
2021/01/07 02:09:28;;;;;;;8.20;5.70;;;-1.60;99.90;;;;;;2064863;28;20169;-58
2021/01/07 02:10:31;;;;;;;7.25;5.20;;;-1.60;99.90;;;;;;2063925;28;20198;-58
2021/01/07 02:11:33;;;;;;;9.40;5.47;;;-1.50;99.90;;;;;;2056695;28;20728;-59
2021/01/07 02:12:35;;;;;;;8.85;5.80;;;-1.50;99.90;;;;;;2064618;28;20181;-59
2021/01/07 02:13:36;;;;;;;9.50;5.75;;;-1.60;99.90;;;;;;2064911;28;20695;-59
2021/01/07 02:14:45;;;;;;;9.50;5.75;;;-1.60;99.90;;;;;;2056863;28;20269;-59
2021/01/07 02:15:45;;;;;;;9.20;5.88;;;-1.60;99.90;;;;;;2064924;28;20521;-59
2021/01/07 02:16:46;;;;;;;8.27;5.37;;;-1.60;99.90;;;;;;2065308;28;20242;-59
2021/01/07 02:17:47;;;;;;;7.60;5.30;;;-1.70;99.90;;;;;;2065223;28;20209;-57
2021/01/07 02:18:49;;;;;;;7.33;5.10;;;-1.70;99.90;;;;;;2065321;28;20809;-57
2021/01/07 02:19:50;;;;;;;8.65;5.82;;;-1.70;99.90;;;;;;2065373;28;20189;-59
2021/01/07 02:20:50;;;;;;;7.93;5.93;;;-1.70;99.90;;;;;;2064965;28;20186;-59
2021/01/07 02:21:51;;;;;;;8.83;5.90;;;-1.70;99.90;;;;;;2065425;28;20188;-57
2021/01/07 02:22:55;;;;;;;9.33;6.30;;;-1.70;99.90;;;;;;2065093;28;20724;-60
2021/01/07 02:23:56;;;;;;;9.77;6.30;;;-1.70;99.90;;;;;;2065339;28;20181;-60
2021/01/07 02:24:57;;;;;;;8.80;6.30;;;-1.60;99.90;;;;;;2065337;28;20720;-57
2021/01/07 02:25:57;;;;;;;8.27;5.77;;;-1.60;99.90;;;;;;2065370;28;20262;-58
2021/01/07 02:27:06;;;;;;;9.90;5.83;;;-1.60;99.90;;;;;;2065211;28;20185;-58
2021/01/07 02:28:08;;;;;;;9.32;6.03;;;-1.50;99.90;;;;;;2065232;28;20670;-58
2021/01/07 02:29:08;;;;;;;7.75;5.35;;;-1.70;99.90;;;;;;2065148;28;20184;-57
2021/01/07 02:30:10;;;;;;;7.93;5.47;;;-1.80;99.90;;;;;;2065338;28;20201;-60
2021/01/07 02:31:10;;;;;;;8.02;5.13;;;-1.80;99.90;;;;;;2064726;28;20683;-58
2021/01/07 02:32:11;;;;;;;9.07;5.80;;;-1.90;99.90;;;;;;2065293;28;20183;-55
2021/01/07 02:33:13;;;;;;;8.23;5.70;;;-1.90;99.90;;;;;;2065195;28;20318;-59
2021/01/07 02:34:13;;;;;;;9.70;6.43;;;-1.90;99.90;;;;;;2065150;28;20173;-57
2021/01/07 02:35:14;;;;;;;8.80;5.73;;;-1.90;99.90;;;;;;2065163;28;20273;-59
2021/01/07 02:36:15;;;;;;;9.87;6.07;;;-1.90;99.90;;;;;;2065260;28;20272;-58
2021/01/07 02:37:16;;;;;;;9.20;6.30;;;-1.80;99.90;;;;;;2065147;28;20177;-59
2021/01/07 02:38:16;;;;;;;10.77;6.57;;;-1.80;99.90;;;;;;2065253;28;20700;-59
2021/01/07 02:39:17;;;;;;;9.47;6.07;;;-1.80;99.90;;;;;;2065085;28;20200;-58
2021/01/07 02:40:18;;;;;;;10.07;6.55;;;-1.80;99.90;;;;;;2065331;28;20224;-58
2021/01/07 02:41:19;;;;;;;9.57;6.00;;;-1.80;99.90;;;;;;2064895;28;20197;-57
2021/01/07 02:42:19;;;;;;;8.33;5.40;;;-1.70;99.90;;;;;;2065269;28;20699;-59
2021/01/07 02:43:20;;;;;;;9.00;6.30;;;-1.70;99.90;;;;;;2065220;28;20182;-58
2021/01/07 02:44:21;;;;;;;10.13;6.73;;;-1.60;99.90;;;;;;2065234;28;20177;-60
2021/01/07 02:45:22;;;;;;;10.43;7.00;;;-1.60;99.90;;;;;;2065078;28;20188;-57
2021/01/07 02:46:22;;;;;;;10.10;6.73;;;-1.60;99.90;;;;;;2065194;28;20177;-59
2021/01/07 02:47:23;;;;;;;7.50;5.87;;;-1.60;99.90;;;;;;2065208;28;20173;-58
2021/01/07 02:48:24;;;;;;;12.23;6.73;;;-1.60;99.90;;;;;;2065272;28;20177;-58
2021/01/07 02:49:24;;;;;;;7.63;5.90;;;-1.50;99.90;;;;;;2065120;28;20181;-59
2021/01/07 02:50:25;;;;;;;9.53;6.30;;;-1.50;99.90;;;;;;2065039;28;20173;-58
2021/01/07 02:51:26;;;;;;;8.52;6.05;;;-1.60;99.90;;;;;;2064750;28;20743;-60
2021/01/07 02:52:27;;;;;;;7.80;5.33;;;-1.60;99.90;;;;;;2065180;28;20185;-58
2021/01/07 02:53:27;;;;;;;8.83;5.67;;;-1.60;99.90;;;;;;2065065;28;20639;-58
2021/01/07 02:54:29;;;;;;;7.30;4.70;;;-1.60;99.90;;;;;;2065252;28;20188;-59
2021/01/07 02:55:30;;;;;;;6.90;4.30;;;-1.70;99.90;;;;;;2064913;28;20186;-58
2021/01/07 02:56:34;;;;;;;6.43;4.47;;;-1.70;99.90;;;;;;2065080;28;20599;-59
2021/01/07 02:57:34;;;;;;;7.78;5.15;;;-1.70;99.90;;;;;;2064924;28;20285;-59
2021/01/07 02:58:35;;;;;;;7.93;4.80;;;-1.70;99.90;;;;;;2064971;28;20190;-58
2021/01/07 02:59:36;;;;;;;6.73;4.63;;;-1.70;99.90;;;;;;2065084;28;20171;-56
2021/01/07 03:00:36;;;;;;;7.57;4.53;;;-1.80;99.90;;;;;;2064920;28;20180;-60
2021/01/07 03:01:38;;;;;;;7.70;4.77;;;-1.80;99.90;;;;;;2064613;28;20620;-59
2021/01/07 03:02:38;;;;;;;7.47;4.70;;;-1.80;99.90;;;;;;2064989;28;20583;-58
2021/01/07 03:03:39;;;;;;;8.50;5.53;;;-1.80;99.90;;;;;;2064992;28;20188;-59
2021/01/07 03:04:40;;;;;;;8.40;5.53;;;-1.80;99.90;;;;;;2064920;28;20637;-57
2021/01/07 03:05:40;;;;;;;10.30;5.70;;;-1.80;99.90;;;;;;2064931;28;20186;-58
2021/01/07 03:06:41;;;;;;;8.20;5.67;;;-1.80;99.90;;;;;;2064674;28;20645;-58
2021/01/07 03:07:41;;;;;;;8.50;5.27;;;-1.80;99.90;;;;;;2065056;28;20193;-57
2021/01/07 03:08:42;;;;;;;8.77;5.50;;;-1.80;99.90;;;;;;2064927;28;20189;-56
2021/01/07 03:09:44;;;;;;;9.37;5.43;;;-1.80;99.90;;;;;;2065021;28;20185;-59
2021/01/07 03:10:44;;;;;;;8.20;5.22;;;-1.90;99.90;;;;;;2064988;28;20212;-60
2021/01/07 03:11:45;;;;;;;7.87;4.93;;;-1.90;99.90;;;;;;2064761;28;20586;-59
2021/01/07 03:12:46;;;;;;;7.97;5.43;;;-1.90;99.90;;;;;;2064787;28;20190;-57
2021/01/07 03:13:46;;;;;;;8.03;5.17;;;-1.90;99.90;;;;;;2064991;28;20186;-58
2021/01/07 03:14:47;;;;;;;10.00;5.10;;;-1.90;99.90;;;;;;2064929;28;20184;-60
2021/01/07 03:15:48;;;;;;;10.10;5.90;;;-1.90;99.90;;;;;;2064944;28;20217;-58
2021/01/07 03:16:49;;;;;;;7.57;5.07;;;-1.90;99.90;;;;;;2064918;28;20196;-59
2021/01/07 03:17:49;;;;;;;7.80;5.03;;;-1.90;99.90;;;;;;2064719;28;20221;-58
2021/01/07 03:18:50;;;;;;;9.10;4.87;;;-1.90;99.90;;;;;;2064896;28;20826;-56
2021/01/07 03:19:51;;;;;;;7.27;4.73;;;-1.90;99.90;;;;;;2065033;28;20243;-59
2021/01/07 03:20:51;;;;;;;9.27;5.50;;;-1.90;99.90;;;;;;2066421;28;20184;-58
2021/01/07 03:21:52;;;;;;;7.10;4.77;;;-1.90;99.90;;;;;;2065339;28;20186;-58
2021/01/07 03:22:53;;;;;;;9.63;5.63;;;-1.90;99.90;;;;;;2064651;28;20645;-59
2021/01/07 03:23:53;;;;;;;6.87;4.83;;;-1.90;99.90;;;;;;2064915;28;20269;-59
2021/01/07 03:24:54;;;;;;;9.50;5.60;;;-2.00;99.90;;;;;;2064867;28;20272;-58
2021/01/07 03:25:55;;;;;;;8.83;5.10;;;-2.00;99.90;;;;;;2064950;28;20180;-58
2021/01/07 03:26:55;;;;;;;9.17;4.80;;;-2.00;99.90;;;;;;2064817;28;20185;-59
2021/01/07 03:27:56;;;;;;;8.60;5.70;;;-2.00;99.90;;;;;;2064999;28;20558;-57
2021/01/07 03:28:57;;;;;;;7.37;4.97;;;-2.00;99.90;;;;;;2064655;28;20192;-59
2021/01/07 03:29:57;;;;;;;7.07;5.03;;;-2.00;99.90;;;;;;2064875;28;20185;-59
2021/01/07 03:30:58;;;;;;;7.53;5.10;;;-2.00;99.90;;;;;;2064451;28;20182;-58
2021/01/07 03:31:59;;;;;;;8.17;5.20;;;-2.10;99.90;;;;;;2064869;28;20644;-57
2021/01/07 03:33:00;;;;;;;8.55;5.25;;;-2.10;99.90;;;;;;2064764;28;20193;-57
2021/01/07 03:34:01;;;;;;;8.50;5.37;;;-2.10;99.90;;;;;;2064759;28;20216;-58
2021/01/07 03:35:06;;;;;;;7.37;4.83;;;-2.10;99.90;;;;;;2064904;28;20245;-59
2021/01/07 03:36:07;;;;;;;7.45;4.65;;;-2.10;99.90;;;;;;2065094;28;20180;-59
2021/01/07 03:37:07;;;;;;;7.10;5.23;;;-2.10;99.90;;;;;;2064730;28;20271;-59
2021/01/07 03:38:08;;;;;;;8.60;5.37;;;-2.10;99.90;;;;;;2064800;28;20181;-58
2021/01/07 03:39:10;;;;;;;7.57;5.27;;;-2.00;99.90;;;;;;2064688;28;20216;-59
2021/01/07 03:40:11;;;;;;;8.73;5.30;;;-2.00;99.90;;;;;;2064691;28;20256;-59
2021/01/07 03:41:12;;;;;;;8.55;5.60;;;-2.00;99.90;;;;;;2064538;28;20916;-57
2021/01/07 03:42:13;;;;;;;6.40;4.77;;;-2.00;99.90;;;;;;2064838;28;20207;-59
2021/01/07 03:43:13;;;;;;;8.83;5.47;;;-2.00;99.90;;;;;;2064914;28;20745;-58
2021/01/07 03:44:15;;;;;;;7.67;5.17;;;-2.10;99.90;;;;;;2064749;28;20651;-58
2021/01/07 03:45:16;;;;;;;6.47;4.32;;;-2.10;99.90;;;;;;2064774;28;20235;-56
2021/01/07 03:46:16;;;;;;;6.23;4.07;;;-2.10;99.90;;;;;;2064980;28;20260;-59
2021/01/07 03:47:17;;;;;;;6.37;4.20;;;-2.10;99.90;;;;;;2065009;28;20189;-58
2021/01/07 03:48:18;;;;;;;7.17;4.80;;;-2.10;99.90;;;;;;2064896;28;20177;-58
2021/01/07 03:49:18;;;;;;;7.97;5.13;;;-2.10;99.90;;;;;;2064949;28;20173;-57
2021/01/07 03:50:19;;;;;;;8.60;5.50;;;-2.10;99.90;;;;;;2066855;28;20185;-58
2021/01/07 03:51:20;;;;;;;7.97;4.93;;;-2.10;99.90;;;;;;2072747;28;20281;-59
2021/01/07 03:52:20;;;;;;;7.90;4.73;;;-2.10;99.90;;;;;;2072989;28;20249;-57
2021/01/07 03:53:21;;;;;;;7.73;4.60;;;-2.10;99.90;;;;;;2064982;28;20185;-57
2021/01/07 03:54:22;;;;;;;7.20;4.77;;;-2.10;99.90;;;;;;2064883;28;20189;-57
2021/01/07 03:55:22;;;;;;;9.17;5.40;;;-2.10;99.90;;;;;;2064240;28;20168;-57
2021/01/07 03:56:23;;;;;;;6.80;4.43;;;-2.10;99.90;;;;;;2064122;28;20182;-58
2021/01/07 03:57:24;;;;;;;5.90;4.30;;;-2.00;99.90;;;;;;2064866;28;20205;-58
2021/01/07 03:58:24;;;;;;;7.23;5.40;;;-2.00;99.90;;;;;;2064759;28;20202;-58
2021/01/07 03:59:25;;;;;;;8.20;4.70;;;-2.00;99.90;;;;;;2064910;28;20185;-59
2021/01/07 04:00:26;;;;;;;8.40;4.93;;;-1.90;99.90;;;;;;2064148;28;20176;-59
2021/01/07 04:01:27;;;;;;;7.77;4.80;;;-1.90;99.90;;;;;;2063974;28;20739;-58
2021/01/07 04:02:27;;;;;;;8.57;5.27;;;-1.90;99.90;;;;;;2064763;28;20598;-57
2021/01/07 04:03:28;;;;;;;8.33;4.53;;;-1.90;99.90;;;;;;2064759;28;20264;-58
2021/01/07 04:04:28;;;;;;;7.00;4.73;;;-1.90;99.90;;;;;;2064684;28;20272;-59
2021/01/07 04:05:29;;;;;;;8.70;5.20;;;-1.90;99.90;;;;;;2064647;28;20260;-59
2021/01/07 04:06:30;;;;;;;7.07;5.27;;;-1.90;99.90;;;;;;2064587;28;20619;-58
2021/01/07 04:07:31;;;;;;;7.90;5.13;;;-1.90;99.90;;;;;;2064696;28;20174;-58
2021/01/07 04:08:31;;;;;;;9.83;5.23;;;-1.90;99.90;;;;;;2064797;28;20213;-57
2021/01/07 04:09:32;;;;;;;12.17;5.17;;;-1.90;99.90;;;;;;2064663;28;20184;-57
2021/01/07 04:10:33;;;;;;;6.60;4.43;;;-1.90;99.90;;;;;;2064716;28;20230;-58
2021/01/07 04:11:33;;;;;;;6.57;4.27;;;-2.00;99.90;;;;;;2064200;28;20214;-59
2021/01/07 04:12:35;;;;;;;7.77;4.87;;;-2.00;99.90;;;;;;2064763;28;20192;-57
2021/01/07 04:13:36;;;;;;;8.77;5.10;;;-1.90;99.90;;;;;;2064607;28;20674;-59
2021/01/07 04:14:37;;;;;;;8.00;4.93;;;-1.90;99.90;;;;;;2064715;28;20193;-59
2021/01/07 04:15:37;;;;;;;8.67;4.77;;;-1.80;99.90;;;;;;2064630;28;20421;-57
2021/01/07 04:16:38;;;;;;;6.80;4.50;;;-1.80;99.90;;;;;;2064689;28;20208;-58
2021/01/07 04:17:39;;;;;;;9.10;5.20;;;-1.80;99.90;;;;;;2064404;28;20207;-57
2021/01/07 04:18:39;;;;;;;8.27;5.00;;;-1.80;99.90;;;;;;2064809;28;20183;-59
2021/01/07 04:19:42;;;;;;;7.17;4.87;;;-1.80;99.90;;;;;;2064448;28;20212;-58
2021/01/07 04:20:43;;;;;;;8.18;5.35;;;-1.80;99.90;;;;;;2064612;28;20184;-58
2021/01/07 04:21:46;;;;;;;6.80;4.60;;;-1.80;99.90;;;;;;2064293;28;20204;-58
2021/01/07 04:22:47;;;;;;;7.60;4.45;;;-1.80;99.90;;;;;;2064517;28;20191;-56
2021/01/07 04:23:47;;;;;;;8.23;5.00;;;-1.80;99.90;;;;;;2064658;28;20239;-58
2021/01/07 04:24:48;;;;;;;7.27;4.67;;;-1.90;99.90;;;;;;2064775;28;20576;-59
2021/01/07 04:25:49;;;;;;;7.30;5.00;;;-1.90;99.90;;;;;;2064649;28;20200;-58
2021/01/07 04:26:49;;;;;;;7.47;5.20;;;-1.90;99.90;;;;;;2064832;28;20192;-58
2021/01/07 04:27:50;;;;;;;7.13;4.63;;;-1.90;99.90;;;;;;2064470;28;20664;-57
2021/01/07 04:28:51;;;;;;;7.80;4.30;;;-1.80;99.90;;;;;;2064646;28;20220;-58
2021/01/07 04:29:51;;;;;;;6.10;4.20;;;-1.90;99.90;;;;;;2064562;28;20275;-58
2021/01/07 04:30:52;;;;;;;7.80;4.57;;;-1.90;99.90;;;;;;2064338;28;20189;-57
2021/01/07 04:31:53;;;;;;;8.10;4.73;;;-1.90;99.90;;;;;;2064604;28;20812;-58
2021/01/07 04:32:54;;;;;;;7.17;4.70;;;-1.80;99.90;;;;;;2064627;28;20181;-57
2021/01/07 04:33:55;;;;;;;7.65;4.85;;;-1.80;99.90;;;;;;2065605;28;20201;-58
2021/01/07 04:34:55;;;;;;;7.57;5.00;;;-1.80;99.90;;;;;;2066293;28;20608;-60
2021/01/07 04:35:56;;;;;;;8.63;6.00;;;-1.80;99.90;;;;;;2066238;28;20192;-58
2021/01/07 04:36:57;;;;;;;8.60;6.13;;;-1.70;99.90;;;;;;2066238;28;20671;-58
2021/01/07 04:37:57;;;;;;;7.53;4.93;;;-1.70;99.90;;;;;;2066119;28;20221;-58
2021/01/07 04:38:58;;;;;;;8.73;5.10;;;-1.70;99.90;;;;;;2066122;28;20296;-58
2021/01/07 04:39:59;;;;;;;7.27;5.10;;;-1.70;99.90;;;;;;2066160;28;20214;-59
2021/01/07 04:41:00;;;;;;;9.07;4.90;;;-1.60;99.90;;;;;;2065311;28;20188;-59
2021/01/07 04:42:01;;;;;;;8.20;4.90;;;-1.70;99.90;;;;;;2065440;28;20728;-57
2021/01/07 04:43:02;;;;;;;8.50;5.43;;;-1.60;99.90;;;;;;2066094;28;20477;-59
2021/01/07 04:44:03;;;;;;;9.65;5.20;;;-1.60;99.90;;;;;;2066049;28;20206;-58
2021/01/07 04:45:05;;;;;;;8.95;5.20;;;-1.60;99.90;;;;;;2066101;28;20231;-59
2021/01/07 04:46:05;;;;;;;8.40;6.05;;;-1.60;99.90;;;;;;2065938;28;20671;-60
2021/01/07 04:47:06;;;;;;;9.50;6.37;;;-1.60;99.90;;;;;;2066070;28;20192;-57
2021/01/07 04:48:08;;;;;;;10.15;6.47;;;-1.60;99.90;;;;;;2066127;28;20255;-60
2021/01/07 04:49:09;;;;;;;9.70;5.65;;;-1.60;99.90;;;;;;2066048;28;20560;-57
2021/01/07 04:50:10;;;;;;;9.73;5.97;;;-1.70;99.90;;;;;;2066012;28;20681;-59
2021/01/07 04:51:11;;;;;;;7.43;5.70;;;-1.70;99.90;;;;;;2065630;28;20256;-58
2021/01/07 04:52:12;;;;;;;8.73;5.25;;;-1.80;99.90;;;;;;2066071;28;20189;-58
2021/01/07 04:53:14;;;;;;;7.23;4.90;;;-1.80;99.90;;;;;;2065947;28;20261;-58
2021/01/07 04:54:16;;;;;;;8.93;5.13;;;-1.80;99.90;;;;;;2065962;28;20173;-57
2021/01/07 04:55:16;;;;;;;8.73;5.53;;;-1.80;99.90;;;;;;2065838;28;20184;-58
2021/01/07 04:56:17;;;;;;;10.30;5.70;;;-1.70;99.90;;;;;;2065404;28;20268;-58
2021/01/07 04:57:18;;;;;;;9.80;5.50;;;-1.80;99.90;;;;;;2065202;28;20181;-58
2021/01/07 04:58:19;;;;;;;6.63;4.90;;;-1.80;99.90;;;;;;2065370;28;20603;-58
2021/01/07 04:59:19;;;;;;;8.47;4.93;;;-1.80;99.90;;;;;;2065289;28;20212;-57
2021/01/07 05:00:20;;;;;;;9.90;5.40;;;-1.80;99.90;;;;;;2065904;28;20205;-58
2021/01/07 05:01:21;;;;;;;8.57;5.32;;;-1.80;99.90;;;;;;2065564;28;20204;-55
2021/01/07 05:02:23;;;;;;;8.20;5.28;;;-1.80;99.90;;;;;;2065358;28;20189;-60
2021/01/07 05:03:25;;;;;;;8.95;5.65;;;-1.70;99.90;;;;;;2065339;28;20177;-58
2021/01/07 05:04:25;;;;;;;8.20;5.20;;;-1.80;99.90;;;;;;2065398;28;20185;-58
2021/01/07 05:05:26;;;;;;;9.43;5.07;;;-1.80;99.90;;;;;;2065291;28;20177;-59
2021/01/07 05:06:27;;;;;;;6.93;5.00;;;-1.80;99.90;;;;;;2065889;28;20192;-57
2021/01/07 05:07:27;;;;;;;7.70;4.93;;;-1.80;99.90;;;;;;2065866;28;20195;-59
2021/01/07 05:08:29;;;;;;;8.30;5.30;;;-1.70;99.90;;;;;;2066007;28;20641;-57
2021/01/07 05:09:32;;;;;;;8.52;5.15;;;-1.80;99.90;;;;;;2065879;28;20796;-59
2021/01/07 05:10:33;;;;;;;10.77;7.25;;;-1.80;99.90;;;;;;2066006;28;20190;-58
2021/01/07 05:11:34;;;;;;;15.63;8.80;;;-1.70;99.90;;;;;;2065314;28;20213;-59
2021/01/07 05:12:36;;;;;;;14.55;8.95;;;-1.70;99.90;;;;;;2065874;28;20186;-59
2021/01/07 05:13:41;;;;;;;12.38;8.32;;;-1.70;99.90;;;;;;2065918;28;20207;-59
2021/01/07 05:14:45;;;;;;;9.05;5.90;;;-1.70;99.90;;;;;;2065956;28;20193;-58
2021/01/07 05:15:46;;;;;;;10.30;6.03;;;-1.80;99.90;;;;;;2065811;28;20186;-57
2021/01/07 05:16:46;;;;;;;9.90;5.67;;;-1.70;99.90;;;;;;2066222;28;20199;-58
2021/01/07 05:17:47;;;;;;;7.93;5.00;;;-1.70;99.90;;;;;;2065982;28;20303;-58
2021/01/07 05:18:48;;;;;;;8.20;4.83;;;-1.70;99.90;;;;;;2067145;28;20217;-59